sensor_id;sensor_type;location;lat;lon;timestamp;pressure;altitude;pressure_sealevel;temperature;humidity
15568;BME280;7885;42.596;23.044;2023-02-12T00:00:06;93879.06;;;-0.24;57.96
15568;BME280;7885;42.596;23.044;2023-02-12T00:02:33;93882.69;;;-0.20;57.37
15568;BME280;7885;42.596;23.044;2023-02-12T00:08:21;93888.19;;;-0.25;56.91
15568;BME280;7885;42.596;23.044;2023-02-12T00:10:48;93878.56;;;-0.26;57.12
15568;BME280;7885;42.596;23.044;2023-02-12T00:13:14;93877.91;;;-0.32;57.06
15568;BME280;7885;42.596;23.044;2023-02-12T00:15:42;93873.94;;;-0.34;56.79
15568;BME280;7885;42.596;23.044;2023-02-12T00:18:09;93880.63;;;-0.23;56.85
15568;BME280;7885;42.596;23.044;2023-02-12T00:20:37;93863.41;;;-0.31;57.05
15568;BME280;7885;42.596;23.044;2023-02-12T00:23:04;93867.81;;;-0.35;56.68
15568;BME280;7885;42.596;23.044;2023-02-12T00:25:31;93874.06;;;-0.39;56.71
15568;BME280;7885;42.596;23.044;2023-02-12T00:27:58;93876.38;;;-0.46;57.10
15568;BME280;7885;42.596;23.044;2023-02-12T00:30:25;93875.19;;;-0.54;57.88
15568;BME280;7885;42.596;23.044;2023-02-12T00:32:53;93875.00;;;-0.58;58.61
15568;BME280;7885;42.596;23.044;2023-02-12T00:35:20;93873.41;;;-0.59;58.26
15568;BME280;7885;42.596;23.044;2023-02-12T00:37:46;93868.81;;;-0.67;58.09
15568;BME280;7885;42.596;23.044;2023-02-12T00:40:13;93857.84;;;-0.79;58.51
15568;BME280;7885;42.596;23.044;2023-02-12T00:42:40;93841.63;;;-0.96;58.69
15568;BME280;7885;42.596;23.044;2023-02-12T00:45:07;93850.16;;;-0.94;59.34
15568;BME280;7885;42.596;23.044;2023-02-12T00:47:34;93828.59;;;-0.97;59.63
15568;BME280;7885;42.596;23.044;2023-02-12T00:50:02;93838.50;;;-0.98;59.64
15568;BME280;7885;42.596;23.044;2023-02-12T00:52:29;93845.22;;;-1.00;59.97
15568;BME280;7885;42.596;23.044;2023-02-12T00:54:56;93841.16;;;-0.98;60.04
15568;BME280;7885;42.596;23.044;2023-02-12T00:57:22;93834.00;;;-0.89;60.01
15568;BME280;7885;42.596;23.044;2023-02-12T00:59:49;93836.19;;;-0.91;60.19
15568;BME280;7885;42.596;23.044;2023-02-12T01:02:16;93835.69;;;-0.93;60.19
15568;BME280;7885;42.596;23.044;2023-02-12T01:04:43;93836.19;;;-0.91;60.03
15568;BME280;7885;42.596;23.044;2023-02-12T01:07:11;93837.88;;;-0.95;60.14
15568;BME280;7885;42.596;23.044;2023-02-12T01:09:38;93828.88;;;-0.99;59.77
15568;BME280;7885;42.596;23.044;2023-02-12T01:12:05;93827.03;;;-1.12;60.03
15568;BME280;7885;42.596;23.044;2023-02-12T01:14:32;93847.03;;;-1.23;60.66
15568;BME280;7885;42.596;23.044;2023-02-12T01:16:58;93836.16;;;-1.27;61.89
15568;BME280;7885;42.596;23.044;2023-02-12T01:19:25;93825.06;;;-1.34;62.49
15568;BME280;7885;42.596;23.044;2023-02-12T01:21:52;93815.59;;;-1.26;61.86
15568;BME280;7885;42.596;23.044;2023-02-12T01:24:20;93824.09;;;-1.11;62.52
15568;BME280;7885;42.596;23.044;2023-02-12T01:26:47;93829.00;;;-1.04;62.84
15568;BME280;7885;42.596;23.044;2023-02-12T01:29:14;93829.28;;;-0.92;62.93
15568;BME280;7885;42.596;23.044;2023-02-12T01:31:40;93828.56;;;-0.84;62.66
15568;BME280;7885;42.596;23.044;2023-02-12T01:34:08;93808.22;;;-0.93;61.98
15568;BME280;7885;42.596;23.044;2023-02-12T01:36:36;93827.53;;;-0.74;61.81
15568;BME280;7885;42.596;23.044;2023-02-12T01:39:03;93790.88;;;-0.96;62.27
15568;BME280;7885;42.596;23.044;2023-02-12T01:41:33;93843.16;;;-0.68;61.74
15568;BME280;7885;42.596;23.044;2023-02-12T01:44:10;93815.41;;;-0.80;61.16
15568;BME280;7885;42.596;23.044;2023-02-12T01:46:38;93835.66;;;-0.66;61.56
15568;BME280;7885;42.596;23.044;2023-02-12T01:49:07;93824.59;;;-0.73;61.11
15568;BME280;7885;42.596;23.044;2023-02-12T01:51:35;93820.03;;;-0.86;62.73
15568;BME280;7885;42.596;23.044;2023-02-12T01:54:05;93814.16;;;-1.10;61.26
15568;BME280;7885;42.596;23.044;2023-02-12T01:56:34;93824.38;;;-1.12;63.26
15568;BME280;7885;42.596;23.044;2023-02-12T01:59:02;93808.66;;;-1.27;63.38
15568;BME280;7885;42.596;23.044;2023-02-12T02:01:30;93813.03;;;-1.31;64.31
15568;BME280;7885;42.596;23.044;2023-02-12T02:04:00;93808.25;;;-1.34;64.21
15568;BME280;7885;42.596;23.044;2023-02-12T02:06:31;93804.09;;;-1.27;64.49
15568;BME280;7885;42.596;23.044;2023-02-12T02:08:59;93812.81;;;-1.21;64.57
15568;BME280;7885;42.596;23.044;2023-02-12T02:11:26;93806.28;;;-1.15;63.99
15568;BME280;7885;42.596;23.044;2023-02-12T02:14:12;93812.88;;;-1.13;64.44
15568;BME280;7885;42.596;23.044;2023-02-12T02:17:08;93815.16;;;-1.06;63.97
15568;BME280;7885;42.596;23.044;2023-02-12T02:19:54;93806.72;;;-0.99;63.17
15568;BME280;7885;42.596;23.044;2023-02-12T02:22:30;93816.91;;;-0.88;62.37
15568;BME280;7885;42.596;23.044;2023-02-12T02:28:04;93805.31;;;-0.83;62.89
15568;BME280;7885;42.596;23.044;2023-02-12T02:30:39;93804.00;;;-0.86;63.18
15568;BME280;7885;42.596;23.044;2023-02-12T02:33:18;93795.63;;;-0.93;63.57
15568;BME280;7885;42.596;23.044;2023-02-12T02:35:52;93803.47;;;-1.10;64.09
15568;BME280;7885;42.596;23.044;2023-02-12T02:38:24;93776.00;;;-1.11;63.83
15568;BME280;7885;42.596;23.044;2023-02-12T02:40:59;93809.16;;;-0.89;63.72
15568;BME280;7885;42.596;23.044;2023-02-12T02:43:32;93768.56;;;-1.00;63.73
15568;BME280;7885;42.596;23.044;2023-02-12T02:46:05;93784.31;;;-1.12;64.28
15568;BME280;7885;42.596;23.044;2023-02-12T02:48:34;93796.56;;;-1.11;64.52
15568;BME280;7885;42.596;23.044;2023-02-12T02:51:07;93812.63;;;-0.89;64.55
15568;BME280;7885;42.596;23.044;2023-02-12T02:53:38;93804.91;;;-0.77;62.65
15568;BME280;7885;42.596;23.044;2023-02-12T02:56:11;93799.00;;;-0.65;62.15
15568;BME280;7885;42.596;23.044;2023-02-12T02:58:42;93807.34;;;-0.67;61.98
15568;BME280;7885;42.596;23.044;2023-02-12T03:01:14;93794.69;;;-0.75;62.69
15568;BME280;7885;42.596;23.044;2023-02-12T03:03:47;93799.28;;;-0.89;64.00
15568;BME280;7885;42.596;23.044;2023-02-12T03:06:21;93803.25;;;-0.86;64.41
15568;BME280;7885;42.596;23.044;2023-02-12T03:08:54;93779.00;;;-0.90;64.65
15568;BME280;7885;42.596;23.044;2023-02-12T03:11:25;93784.00;;;-0.75;64.72
15568;BME280;7885;42.596;23.044;2023-02-12T03:13:58;93808.06;;;-0.53;64.79
15568;BME280;7885;42.596;23.044;2023-02-12T03:16:30;93797.25;;;-0.47;64.69
15568;BME280;7885;42.596;23.044;2023-02-12T03:19:02;93797.59;;;-0.40;64.47
15568;BME280;7885;42.596;23.044;2023-02-12T03:21:36;93802.22;;;-0.32;64.03
15568;BME280;7885;42.596;23.044;2023-02-12T03:24:11;93795.19;;;-0.28;63.10
15568;BME280;7885;42.596;23.044;2023-02-12T03:26:43;93792.88;;;-0.21;62.37
15568;BME280;7885;42.596;23.044;2023-02-12T03:29:12;93798.88;;;-0.16;62.10
15568;BME280;7885;42.596;23.044;2023-02-12T03:31:50;93795.00;;;-0.32;61.74
15568;BME280;7885;42.596;23.044;2023-02-12T03:34:27;93796.53;;;-0.39;63.28
15568;BME280;7885;42.596;23.044;2023-02-12T03:36:59;93787.41;;;-0.38;63.96
15568;BME280;7885;42.596;23.044;2023-02-12T03:39:29;93778.28;;;-0.37;63.70
15568;BME280;7885;42.596;23.044;2023-02-12T03:42:02;93785.38;;;-0.33;63.59
15568;BME280;7885;42.596;23.044;2023-02-12T03:44:43;93783.19;;;-0.31;63.34
15568;BME280;7885;42.596;23.044;2023-02-12T03:47:19;93774.28;;;-0.48;64.33
15568;BME280;7885;42.596;23.044;2023-02-12T03:49:52;93779.25;;;-0.33;64.98
15568;BME280;7885;42.596;23.044;2023-02-12T03:52:21;93788.72;;;-0.27;63.92
15568;BME280;7885;42.596;23.044;2023-02-12T03:54:48;93760.41;;;-0.28;64.16
15568;BME280;7885;42.596;23.044;2023-02-12T03:57:18;93790.41;;;-0.09;63.99
15568;BME280;7885;42.596;23.044;2023-02-12T03:59:46;93770.41;;;-0.12;63.84
15568;BME280;7885;42.596;23.044;2023-02-12T04:02:17;93771.28;;;0.06;63.16
15568;BME280;7885;42.596;23.044;2023-02-12T04:04:45;93779.16;;;0.11;63.03
15568;BME280;7885;42.596;23.044;2023-02-12T04:07:13;93760.59;;;0.06;62.63
15568;BME280;7885;42.596;23.044;2023-02-12T04:09:41;93759.81;;;0.14;62.79
15568;BME280;7885;42.596;23.044;2023-02-12T04:12:19;93773.41;;;0.26;63.40
15568;BME280;7885;42.596;23.044;2023-02-12T04:14:51;93766.34;;;0.30;63.81
15568;BME280;7885;42.596;23.044;2023-02-12T04:17:28;93776.44;;;0.33;63.76
15568;BME280;7885;42.596;23.044;2023-02-12T04:20:05;93775.00;;;0.27;62.95
15568;BME280;7885;42.596;23.044;2023-02-12T04:22:42;93785.72;;;0.36;62.99
15568;BME280;7885;42.596;23.044;2023-02-12T04:25:20;93779.75;;;0.39;62.49
15568;BME280;7885;42.596;23.044;2023-02-12T04:27:56;93771.84;;;0.25;61.65
15568;BME280;7885;42.596;23.044;2023-02-12T04:30:28;93787.63;;;0.35;61.69
15568;BME280;7885;42.596;23.044;2023-02-12T04:33:01;93772.34;;;0.27;63.16
15568;BME280;7885;42.596;23.044;2023-02-12T04:35:32;93784.59;;;0.28;64.64
15568;BME280;7885;42.596;23.044;2023-02-12T04:38:06;93772.28;;;0.19;64.71
15568;BME280;7885;42.596;23.044;2023-02-12T04:40:35;93794.69;;;0.31;64.87
15568;BME280;7885;42.596;23.044;2023-02-12T04:43:03;93798.66;;;0.34;64.75
15568;BME280;7885;42.596;23.044;2023-02-12T04:45:33;93791.09;;;0.36;64.33
15568;BME280;7885;42.596;23.044;2023-02-12T04:48:02;93805.13;;;0.41;64.20
15568;BME280;7885;42.596;23.044;2023-02-12T04:50:37;93807.66;;;0.46;64.26
15568;BME280;7885;42.596;23.044;2023-02-12T04:53:04;93814.28;;;0.49;63.29
15568;BME280;7885;42.596;23.044;2023-02-12T04:55:31;93807.38;;;0.57;61.49
15568;BME280;7885;42.596;23.044;2023-02-12T04:57:57;93815.75;;;0.55;61.29
15568;BME280;7885;42.596;23.044;2023-02-12T05:00:24;93814.28;;;0.49;61.33
15568;BME280;7885;42.596;23.044;2023-02-12T05:02:51;93814.00;;;0.50;62.06
15568;BME280;7885;42.596;23.044;2023-02-12T05:05:19;93812.91;;;0.60;62.60
15568;BME280;7885;42.596;23.044;2023-02-12T05:07:46;93807.88;;;0.59;62.27
15568;BME280;7885;42.596;23.044;2023-02-12T05:10:13;93814.97;;;0.55;63.54
15568;BME280;7885;42.596;23.044;2023-02-12T05:12:39;93813.53;;;0.57;63.64
15568;BME280;7885;42.596;23.044;2023-02-12T05:15:06;93823.16;;;0.67;63.25
15568;BME280;7885;42.596;23.044;2023-02-12T05:17:33;93822.56;;;0.70;63.57
15568;BME280;7885;42.596;23.044;2023-02-12T05:20:00;93825.56;;;0.68;64.26
15568;BME280;7885;42.596;23.044;2023-02-12T05:22:28;93828.53;;;0.67;64.21
15568;BME280;7885;42.596;23.044;2023-02-12T05:24:55;93824.59;;;0.64;64.36
15568;BME280;7885;42.596;23.044;2023-02-12T05:27:21;93811.16;;;0.56;64.05
15568;BME280;7885;42.596;23.044;2023-02-12T05:29:48;93821.88;;;0.56;64.24
15568;BME280;7885;42.596;23.044;2023-02-12T05:32:15;93835.81;;;0.35;64.82
15568;BME280;7885;42.596;23.044;2023-02-12T05:34:41;93829.63;;;0.26;64.89
15568;BME280;7885;42.596;23.044;2023-02-12T05:37:08;93841.75;;;0.24;66.25
15568;BME280;7885;42.596;23.044;2023-02-12T05:39:36;93840.69;;;0.33;65.89
15568;BME280;7885;42.596;23.044;2023-02-12T05:42:03;93844.63;;;0.36;65.21
15568;BME280;7885;42.596;23.044;2023-02-12T05:44:30;93847.81;;;0.38;66.60
15568;BME280;7885;42.596;23.044;2023-02-12T05:46:56;93855.25;;;0.49;66.29
15568;BME280;7885;42.596;23.044;2023-02-12T05:49:23;93830.69;;;0.47;66.68
15568;BME280;7885;42.596;23.044;2023-02-12T05:51:50;93844.53;;;0.49;67.39
15568;BME280;7885;42.596;23.044;2023-02-12T05:54:17;93855.47;;;0.62;66.12
15568;BME280;7885;42.596;23.044;2023-02-12T05:56:46;93859.09;;;0.66;66.44
15568;BME280;7885;42.596;23.044;2023-02-12T05:59:15;93857.69;;;0.68;66.12
15568;BME280;7885;42.596;23.044;2023-02-12T06:01:44;93865.47;;;0.87;63.44
15568;BME280;7885;42.596;23.044;2023-02-12T06:04:13;93868.03;;;0.92;63.53
15568;BME280;7885;42.596;23.044;2023-02-12T06:06:41;93871.31;;;0.89;65.44
15568;BME280;7885;42.596;23.044;2023-02-12T06:09:08;93849.84;;;0.80;65.50
15568;BME280;7885;42.596;23.044;2023-02-12T06:11:35;93865.69;;;0.99;65.53
15568;BME280;7885;42.596;23.044;2023-02-12T06:14:04;93865.84;;;1.11;63.63
15568;BME280;7885;42.596;23.044;2023-02-12T06:16:30;93862.25;;;1.24;63.99
15568;BME280;7885;42.596;23.044;2023-02-12T06:18:59;93863.06;;;1.33;64.30
15568;BME280;7885;42.596;23.044;2023-02-12T06:21:26;93849.66;;;1.33;64.71
15568;BME280;7885;42.596;23.044;2023-02-12T06:23:53;93861.66;;;1.44;65.31
15568;BME280;7885;42.596;23.044;2023-02-12T06:26:20;93870.38;;;1.59;65.37
15568;BME280;7885;42.596;23.044;2023-02-12T06:28:48;93875.72;;;1.67;67.03
15568;BME280;7885;42.596;23.044;2023-02-12T06:31:21;93859.00;;;1.62;68.28
15568;BME280;7885;42.596;23.044;2023-02-12T06:33:49;93864.03;;;1.72;69.49
15568;BME280;7885;42.596;23.044;2023-02-12T06:36:16;93868.13;;;1.78;70.21
15568;BME280;7885;42.596;23.044;2023-02-12T06:38:43;93863.22;;;1.80;71.29
15568;BME280;7885;42.596;23.044;2023-02-12T06:41:10;93870.66;;;1.83;71.68
15568;BME280;7885;42.596;23.044;2023-02-12T06:43:37;93879.19;;;1.85;72.01
15568;BME280;7885;42.596;23.044;2023-02-12T06:46:05;93849.66;;;1.76;72.19
15568;BME280;7885;42.596;23.044;2023-02-12T06:48:33;93868.47;;;1.68;73.64
15568;BME280;7885;42.596;23.044;2023-02-12T06:51:04;93848.72;;;1.64;73.69
15568;BME280;7885;42.596;23.044;2023-02-12T06:53:32;93867.69;;;1.76;73.67
15568;BME280;7885;42.596;23.044;2023-02-12T06:56:00;93851.72;;;1.71;73.75
15568;BME280;7885;42.596;23.044;2023-02-12T06:58:27;93873.19;;;1.71;73.96
15568;BME280;7885;42.596;23.044;2023-02-12T07:00:54;93871.91;;;1.60;75.00
15568;BME280;7885;42.596;23.044;2023-02-12T07:03:21;93868.63;;;1.71;75.43
15568;BME280;7885;42.596;23.044;2023-02-12T07:05:49;93862.78;;;1.78;75.59
15568;BME280;7885;42.596;23.044;2023-02-12T07:08:16;93870.66;;;1.83;74.90
15568;BME280;7885;42.596;23.044;2023-02-12T07:10:47;93855.19;;;1.80;74.45
15568;BME280;7885;42.596;23.044;2023-02-12T07:13:14;93855.69;;;1.82;74.53
15568;BME280;7885;42.596;23.044;2023-02-12T07:15:40;93857.84;;;1.97;74.43
15568;BME280;7885;42.596;23.044;2023-02-12T07:18:07;93863.06;;;2.02;74.51
15568;BME280;7885;42.596;23.044;2023-02-12T07:20:34;93851.53;;;2.01;74.11
15568;BME280;7885;42.596;23.044;2023-02-12T07:23:02;93862.09;;;2.15;73.39
15568;BME280;7885;42.596;23.044;2023-02-12T07:25:29;93859.91;;;2.17;73.23
15568;BME280;7885;42.596;23.044;2023-02-12T07:27:55;93864.44;;;2.25;72.91
15568;BME280;7885;42.596;23.044;2023-02-12T07:30:22;93862.06;;;2.32;72.29
15568;BME280;7885;42.596;23.044;2023-02-12T07:32:49;93844.66;;;2.38;71.76
15568;BME280;7885;42.596;23.044;2023-02-12T07:35:15;93829.84;;;2.32;70.89
15568;BME280;7885;42.596;23.044;2023-02-12T07:37:42;93851.94;;;2.46;70.72
15568;BME280;7885;42.596;23.044;2023-02-12T07:40:11;93837.75;;;2.37;70.52
15568;BME280;7885;42.596;23.044;2023-02-12T07:42:37;93857.91;;;2.52;70.37
15568;BME280;7885;42.596;23.044;2023-02-12T07:45:05;93847.63;;;2.54;70.38
15568;BME280;7885;42.596;23.044;2023-02-12T07:47:32;93852.22;;;2.53;70.29
15568;BME280;7885;42.596;23.044;2023-02-12T07:50:00;93858.53;;;2.58;70.35
15568;BME280;7885;42.596;23.044;2023-02-12T07:52:26;93857.88;;;2.61;70.55
15568;BME280;7885;42.596;23.044;2023-02-12T07:54:53;93854.88;;;2.62;70.21
15568;BME280;7885;42.596;23.044;2023-02-12T07:57:21;93861.19;;;2.66;70.25
15568;BME280;7885;42.596;23.044;2023-02-12T07:59:48;93839.25;;;2.55;70.17
15568;BME280;7885;42.596;23.044;2023-02-12T08:02:14;93866.69;;;2.70;69.92
15568;BME280;7885;42.596;23.044;2023-02-12T08:04:41;93871.75;;;2.71;70.30
15568;BME280;7885;42.596;23.044;2023-02-12T08:07:08;93870.97;;;2.71;70.28
15568;BME280;7885;42.596;23.044;2023-02-12T08:09:34;93852.81;;;2.59;70.68
15568;BME280;7885;42.596;23.044;2023-02-12T08:12:01;93872.22;;;2.73;70.80
15568;BME280;7885;42.596;23.044;2023-02-12T08:14:29;93870.66;;;2.72;71.03
15568;BME280;7885;42.596;23.044;2023-02-12T08:16:56;93877.75;;;2.77;70.95
15568;BME280;7885;42.596;23.044;2023-02-12T08:19:23;93873.81;;;2.74;70.90
15568;BME280;7885;42.596;23.044;2023-02-12T08:21:50;93863.19;;;2.78;70.43
15568;BME280;7885;42.596;23.044;2023-02-12T08:24:17;93863.84;;;2.75;70.48
15568;BME280;7885;42.596;23.044;2023-02-12T08:26:46;93885.00;;;2.85;70.36
15568;BME280;7885;42.596;23.044;2023-02-12T08:29:14;93881.06;;;2.82;70.61
15568;BME280;7885;42.596;23.044;2023-02-12T08:31:44;93886.56;;;2.86;70.12
15568;BME280;7885;42.596;23.044;2023-02-12T08:34:16;93885.00;;;2.85;70.82
15568;BME280;7885;42.596;23.044;2023-02-12T08:36:45;93886.72;;;2.89;71.03
15568;BME280;7885;42.596;23.044;2023-02-12T08:39:12;93900.63;;;2.91;70.95
15568;BME280;7885;42.596;23.044;2023-02-12T08:41:39;93903.00;;;2.93;70.88
15568;BME280;7885;42.596;23.044;2023-02-12T08:44:08;93907.72;;;2.96;70.75
15568;BME280;7885;42.596;23.044;2023-02-12T08:46:37;93914.50;;;3.02;70.56
15568;BME280;7885;42.596;23.044;2023-02-12T08:49:07;93900.56;;;3.00;70.91
15568;BME280;7885;42.596;23.044;2023-02-12T08:51:35;93919.81;;;3.11;70.50
15568;BME280;7885;42.596;23.044;2023-02-12T08:54:05;93916.81;;;3.12;70.43
15568;BME280;7885;42.596;23.044;2023-02-12T08:56:33;93917.28;;;3.14;70.29
15568;BME280;7885;42.596;23.044;2023-02-12T08:59:02;93924.84;;;3.21;69.89
15568;BME280;7885;42.596;23.044;2023-02-12T09:01:31;93912.69;;;3.15;69.64
15568;BME280;7885;42.596;23.044;2023-02-12T09:03:58;93928.94;;;3.27;69.77
15568;BME280;7885;42.596;23.044;2023-02-12T09:06:27;93931.78;;;3.30;69.42
15568;BME280;7885;42.596;23.044;2023-02-12T09:08:54;93917.91;;;3.20;69.49
15568;BME280;7885;42.596;23.044;2023-02-12T09:11:22;93928.94;;;3.27;68.92
15568;BME280;7885;42.596;23.044;2023-02-12T09:13:55;93915.81;;;3.25;68.86
15568;BME280;7885;42.596;23.044;2023-02-12T09:16:23;93934.13;;;3.32;68.93
15568;BME280;7885;42.596;23.044;2023-02-12T09:18:50;93933.81;;;3.33;68.92
15568;BME280;7885;42.596;23.044;2023-02-12T09:21:18;93944.72;;;3.37;68.51
15568;BME280;7885;42.596;23.044;2023-02-12T09:23:47;93940.59;;;3.39;68.42
15568;BME280;7885;42.596;23.044;2023-02-12T09:26:15;93931.06;;;3.42;68.08
15568;BME280;7885;42.596;23.044;2023-02-12T09:28:45;93930.94;;;3.38;67.83
15568;BME280;7885;42.596;23.044;2023-02-12T09:31:14;93939.56;;;3.52;68.42
15568;BME280;7885;42.596;23.044;2023-02-12T09:33:42;93949.03;;;3.58;68.64
15568;BME280;7885;42.596;23.044;2023-02-12T09:36:11;93953.78;;;3.62;68.05
15568;BME280;7885;42.596;23.044;2023-02-12T09:38:38;93954.09;;;3.60;68.47
15568;BME280;7885;42.596;23.044;2023-02-12T09:41:27;93953.94;;;3.65;68.68
15568;BME280;7885;42.596;23.044;2023-02-12T09:44:03;93950.16;;;3.58;68.78
15568;BME280;7885;42.596;23.044;2023-02-12T09:46:34;93957.50;;;3.69;68.66
15568;BME280;7885;42.596;23.044;2023-02-12T09:49:08;93960.56;;;3.68;69.23
15568;BME280;7885;42.596;23.044;2023-02-12T09:51:37;93961.22;;;3.65;69.56
15568;BME280;7885;42.596;23.044;2023-02-12T09:54:06;93962.63;;;3.62;69.76
15568;BME280;7885;42.596;23.044;2023-02-12T09:56:36;93963.41;;;3.63;69.53
15568;BME280;7885;42.596;23.044;2023-02-12T09:59:05;93954.59;;;3.53;69.93
15568;BME280;7885;42.596;23.044;2023-02-12T10:01:32;93935.03;;;3.44;70.23
15568;BME280;7885;42.596;23.044;2023-02-12T10:03:59;93954.25;;;3.64;69.98
15568;BME280;7885;42.596;23.044;2023-02-12T10:06:28;93946.34;;;3.58;70.49
15568;BME280;7885;42.596;23.044;2023-02-12T10:09:13;93955.16;;;3.68;70.63
15568;BME280;7885;42.596;23.044;2023-02-12T10:11:53;93951.75;;;3.79;70.63
15568;BME280;7885;42.596;23.044;2023-02-12T10:14:42;93950.78;;;3.84;70.72
15568;BME280;7885;42.596;23.044;2023-02-12T10:17:16;93963.31;;;3.80;70.88
15568;BME280;7885;42.596;23.044;2023-02-12T10:22:49;93955.84;;;3.85;71.05
15568;BME280;7885;42.596;23.044;2023-02-12T10:25:28;93958.06;;;3.83;71.17
15568;BME280;7885;42.596;23.044;2023-02-12T10:28:00;93955.59;;;3.78;71.52
15568;BME280;7885;42.596;23.044;2023-02-12T10:30:36;93953.34;;;3.80;71.59
15568;BME280;7885;42.596;23.044;2023-02-12T10:33:09;93956.81;;;3.81;71.93
15568;BME280;7885;42.596;23.044;2023-02-12T10:35:42;93953.47;;;3.84;71.86
15568;BME280;7885;42.596;23.044;2023-02-12T10:38:15;93961.38;;;3.89;71.45
15568;BME280;7885;42.596;23.044;2023-02-12T10:40:44;93961.81;;;3.91;71.29
15568;BME280;7885;42.596;23.044;2023-02-12T10:43:13;93952.91;;;3.99;71.83
15568;BME280;7885;42.596;23.044;2023-02-12T10:45:41;93956.72;;;4.19;71.06
15568;BME280;7885;42.596;23.044;2023-02-12T10:48:11;93958.69;;;4.30;70.73
15568;BME280;7885;42.596;23.044;2023-02-12T10:53:32;93951.13;;;4.44;70.89
15568;BME280;7885;42.596;23.044;2023-02-12T10:56:15;93949.72;;;4.38;71.07
15568;BME280;7885;42.596;23.044;2023-02-12T10:58:55;93927.78;;;4.28;70.22
15568;BME280;7885;42.596;23.044;2023-02-12T11:01:26;93949.13;;;4.53;70.76
15568;BME280;7885;42.596;23.044;2023-02-12T11:03:53;93929.19;;;4.67;69.74
15568;BME280;7885;42.596;23.044;2023-02-12T11:06:23;93934.63;;;4.79;69.29
15568;BME280;7885;42.596;23.044;2023-02-12T11:08:51;93956.91;;;5.00;69.05
15568;BME280;7885;42.596;23.044;2023-02-12T11:11:20;93948.50;;;5.01;69.63
15568;BME280;7885;42.596;23.044;2023-02-12T11:13:56;93958.84;;;4.99;69.08
15568;BME280;7885;42.596;23.044;2023-02-12T11:16:28;93951.19;;;4.89;69.22
15568;BME280;7885;42.596;23.044;2023-02-12T11:19:00;93951.94;;;4.90;70.13
15568;BME280;7885;42.596;23.044;2023-02-12T11:21:29;93941.13;;;4.78;70.62
15568;BME280;7885;42.596;23.044;2023-02-12T11:23:56;93939.91;;;4.75;70.15
15568;BME280;7885;42.596;23.044;2023-02-12T11:26:25;93952.84;;;4.82;70.31
15568;BME280;7885;42.596;23.044;2023-02-12T11:28:56;93952.38;;;4.80;70.72
15568;BME280;7885;42.596;23.044;2023-02-12T11:31:25;93956.56;;;4.89;71.07
15568;BME280;7885;42.596;23.044;2023-02-12T11:34:11;93957.59;;;4.97;70.58
15568;BME280;7885;42.596;23.044;2023-02-12T11:36:41;93963.22;;;5.04;69.81
15568;BME280;7885;42.596;23.044;2023-02-12T11:39:18;93948.63;;;5.05;70.19
15568;BME280;7885;42.596;23.044;2023-02-12T11:41:50;93956.63;;;5.14;70.38
15568;BME280;7885;42.596;23.044;2023-02-12T11:44:24;93950.00;;;5.23;69.40
15568;BME280;7885;42.596;23.044;2023-02-12T11:46:54;93947.97;;;5.20;69.39
15568;BME280;7885;42.596;23.044;2023-02-12T11:49:24;93954.00;;;5.05;69.16
15568;BME280;7885;42.596;23.044;2023-02-12T11:51:53;93953.22;;;5.04;69.67
15568;BME280;7885;42.596;23.044;2023-02-12T11:54:23;93957.25;;;4.98;69.37
15568;BME280;7885;42.596;23.044;2023-02-12T11:56:51;93957.34;;;4.90;69.56
15568;BME280;7885;42.596;23.044;2023-02-12T11:59:36;93944.31;;;4.92;69.31
15568;BME280;7885;42.596;23.044;2023-02-12T12:02:16;93946.97;;;4.80;69.60
15568;BME280;7885;42.596;23.044;2023-02-12T12:04:49;93958.00;;;4.87;70.20
15568;BME280;7885;42.596;23.044;2023-02-12T12:07:22;93955.78;;;4.89;70.19
15568;BME280;7885;42.596;23.044;2023-02-12T12:09:55;93956.34;;;4.94;69.31
15568;BME280;7885;42.596;23.044;2023-02-12T12:12:30;93940.38;;;4.89;68.82
15568;BME280;7885;42.596;23.044;2023-02-12T12:15:05;93958.50;;;5.01;69.17
15568;BME280;7885;42.596;23.044;2023-02-12T12:17:55;93950.03;;;4.90;69.54
15568;BME280;7885;42.596;23.044;2023-02-12T12:20:46;93954.44;;;4.95;69.75
15568;BME280;7885;42.596;23.044;2023-02-12T12:23:17;93966.03;;;4.95;70.00
15568;BME280;7885;42.596;23.044;2023-02-12T12:25:47;93962.72;;;4.90;69.98
15568;BME280;7885;42.596;23.044;2023-02-12T12:28:31;93958.78;;;4.75;70.51
15568;BME280;7885;42.596;23.044;2023-02-12T12:31:06;93969.59;;;4.87;70.32
15568;BME280;7885;42.596;23.044;2023-02-12T12:33:41;93959.22;;;4.77;70.31
15568;BME280;7885;42.596;23.044;2023-02-12T12:36:31;93978.03;;;4.86;69.59
15568;BME280;7885;42.596;23.044;2023-02-12T12:39:12;93976.94;;;4.99;70.16
15568;BME280;7885;42.596;23.044;2023-02-12T12:41:51;93981.00;;;5.05;69.61
15568;BME280;7885;42.596;23.044;2023-02-12T12:44:30;93977.41;;;5.13;69.42
15568;BME280;7885;42.596;23.044;2023-02-12T12:47:12;93974.16;;;5.20;69.26
15568;BME280;7885;42.596;23.044;2023-02-12T12:49:54;93971.03;;;5.30;68.46
15568;BME280;7885;42.596;23.044;2023-02-12T12:52:59;93975.66;;;5.29;68.41
15568;BME280;7885;42.596;23.044;2023-02-12T12:55:49;93983.19;;;5.24;68.77
15568;BME280;7885;42.596;23.044;2023-02-12T12:58:27;93983.81;;;5.21;68.60
15568;BME280;7885;42.596;23.044;2023-02-12T13:01:05;93983.50;;;5.22;68.57
15568;BME280;7885;42.596;23.044;2023-02-12T13:06:43;93992.22;;;5.07;68.88
15568;BME280;7885;42.596;23.044;2023-02-12T13:15:07;94000.56;;;5.14;69.31
15568;BME280;7885;42.596;23.044;2023-02-12T13:17:42;94008.00;;;5.17;69.39
15568;BME280;7885;42.596;23.044;2023-02-12T13:20:18;93999.13;;;5.17;68.99
15568;BME280;7885;42.596;23.044;2023-02-12T13:22:52;94002.41;;;5.22;68.56
15568;BME280;7885;42.596;23.044;2023-02-12T13:25:27;93977.94;;;4.94;68.60
15568;BME280;7885;42.596;23.044;2023-02-12T13:27:57;94008.09;;;5.21;68.64
15568;BME280;7885;42.596;23.044;2023-02-12T13:30:29;94009.69;;;5.22;68.85
15568;BME280;7885;42.596;23.044;2023-02-12T13:33:04;94008.03;;;5.29;68.59
15568;BME280;7885;42.596;23.044;2023-02-12T13:35:34;94019.31;;;5.43;67.81
15568;BME280;7885;42.596;23.044;2023-02-12T13:38:05;94003.19;;;5.35;67.79
15568;BME280;7885;42.596;23.044;2023-02-12T13:40:34;94015.63;;;5.48;67.69
15568;BME280;7885;42.596;23.044;2023-02-12T13:43:10;94021.31;;;5.34;67.97
15568;BME280;7885;42.596;23.044;2023-02-12T13:45:47;94019.97;;;5.40;68.11